createdAt,value
2022-11-29T00:01:39.742Z,76.10
2022-11-29T00:04:08.111Z,75.98
2022-11-29T00:06:36.393Z,75.93
2022-11-29T00:09:11.873Z,75.87
2022-11-29T00:12:00.974Z,75.97
2022-11-29T00:14:29.416Z,75.97
2022-11-29T00:17:02.400Z,75.99
2022-11-29T00:19:32.772Z,75.87
2022-11-29T00:22:02.479Z,75.84
2022-11-29T00:24:32.789Z,76.04
2022-11-29T00:27:01.493Z,76.18
2022-11-29T00:29:30.756Z,76.45
2022-11-29T00:31:59.525Z,76.56
2022-11-29T00:34:27.882Z,76.77
2022-11-29T00:36:55.813Z,76.85
2022-11-29T00:39:24.349Z,76.82
2022-11-29T00:41:52.808Z,76.90
2022-11-29T00:44:20.888Z,76.75
2022-11-29T00:46:49.446Z,76.74
2022-11-29T00:49:18.106Z,76.76
2022-11-29T00:51:46.688Z,76.66
2022-11-29T00:54:14.619Z,76.64
2022-11-29T00:56:42.960Z,76.67
2022-11-29T00:59:10.945Z,76.55
2022-11-29T01:01:39.302Z,76.37
2022-11-29T01:04:07.362Z,76.36
2022-11-29T01:06:35.547Z,76.54
2022-11-29T01:09:04.075Z,76.51
2022-11-29T01:11:32.317Z,76.47
2022-11-29T01:14:03.070Z,76.55
2022-11-29T01:16:31.608Z,76.59
2022-11-29T01:19:00.747Z,76.56
2022-11-29T01:21:29.285Z,76.36
2022-11-29T01:23:57.502Z,76.30
2022-11-29T01:26:28.063Z,76.40
2022-11-29T01:28:58.688Z,76.52
2022-11-29T01:31:30.942Z,76.71
2022-11-29T01:34:02.038Z,76.76
2022-11-29T01:36:30.267Z,76.98
2022-11-29T01:39:02.360Z,77.02
2022-11-29T01:41:33.181Z,77.02
2022-11-29T01:44:28.491Z,77.01
2022-11-29T01:46:57.482Z,76.90
2022-11-29T01:49:42.834Z,76.97
2022-11-29T01:52:23.838Z,76.82
2022-11-29T01:54:56.764Z,76.98
2022-11-29T01:57:25.421Z,77.10
2022-11-29T02:00:20.774Z,77.24
2022-11-29T02:03:12.834Z,77.31
2022-11-29T02:05:44.991Z,77.25
2022-11-29T02:08:15.843Z,77.26
2022-11-29T02:10:50.567Z,77.33
2022-11-29T02:13:33.730Z,77.60
2022-11-29T02:16:14.110Z,77.88
2022-11-29T02:18:57.536Z,77.95
2022-11-29T02:21:45.732Z,78.18
2022-11-29T02:24:13.545Z,78.22
2022-11-29T02:26:59.167Z,78.11
2022-11-29T02:30:05.215Z,78.02
2022-11-29T02:32:48.509Z,78.16
2022-11-29T02:35:54.863Z,78.16
2022-11-29T02:38:59.025Z,78.16
2022-11-29T02:41:41.935Z,78.08
2022-11-29T02:44:18.850Z,78.07
2022-11-29T02:47:22.776Z,78.31
2022-11-29T02:49:53.914Z,78.44
2022-11-29T02:52:55.521Z,78.53
2022-11-29T02:55:43.460Z,78.32
2022-11-29T02:58:17.687Z,78.01
2022-11-29T03:01:18.822Z,77.80
2022-11-29T03:04:34.177Z,77.76
2022-11-29T03:07:24.319Z,77.33
2022-11-29T03:10:13.919Z,76.90
2022-11-29T03:12:47.484Z,76.95
2022-11-29T03:15:34.395Z,76.85
2022-11-29T03:18:20.566Z,76.70
2022-11-29T03:21:18.425Z,76.60
2022-11-29T03:23:57.749Z,76.58
2022-11-29T03:26:42.666Z,76.53
2022-11-29T03:29:39.904Z,76.40
2022-11-29T03:32:28.897Z,76.42
2022-11-29T03:35:13.128Z,76.49
2022-11-29T03:38:08.472Z,76.47
2022-11-29T03:40:50.203Z,76.26
2022-11-29T03:43:26.646Z,76.29
2022-11-29T03:46:04.678Z,76.57
2022-11-29T03:48:58.693Z,76.43
2022-11-29T03:51:41.443Z,76.20
2022-11-29T03:54:19.850Z,76.27
2022-11-29T03:56:48.103Z,76.29
2022-11-29T03:59:30.898Z,76.10
2022-11-29T04:02:20.649Z,76.12
2022-11-29T04:05:07.491Z,76.05
2022-11-29T04:08:06.225Z,76.04
2022-11-29T04:11:02.465Z,75.79
2022-11-29T04:13:39.368Z,75.75
2022-11-29T04:16:10.400Z,75.46
2022-11-29T04:18:53.288Z,75.34
2022-11-29T04:21:42.282Z,75.52
2022-11-29T04:24:19.441Z,75.41
2022-11-29T04:27:24.654Z,75.26
2022-11-29T04:29:55.818Z,75.06
2022-11-29T04:32:42.392Z,75.20
2022-11-29T04:35:38.147Z,75.23
2022-11-29T04:38:12.065Z,75.42
2022-11-29T04:40:43.140Z,75.58
2022-11-29T04:43:14.303Z,75.88
2022-11-29T04:45:53.439Z,76.18
2022-11-29T04:48:38.935Z,76.27
2022-11-29T04:51:28.145Z,76.34
2022-11-29T04:54:16.202Z,76.46
2022-11-29T04:56:52.027Z,76.60
2022-11-29T04:59:38.733Z,76.69
2022-11-29T05:02:37.636Z,76.75
2022-11-29T05:05:37.017Z,76.68
2022-11-29T05:08:35.918Z,76.49
2022-11-29T05:11:13.404Z,76.18
2022-11-29T05:14:08.826Z,75.82
2022-11-29T05:17:18.826Z,75.50
2022-11-29T05:19:55.499Z,75.33
2022-11-29T05:22:48.993Z,75.31
2022-11-29T05:25:40.402Z,75.35
2022-11-29T05:28:25.818Z,75.56
2022-11-29T05:30:56.931Z,75.81
2022-11-29T05:33:51.493Z,76.14
2022-11-29T05:36:38.443Z,76.76
2022-11-29T05:39:31.264Z,78.99
2022-11-29T05:42:23.689Z,79.46
2022-11-29T05:45:18.737Z,78.70
2022-11-29T05:47:50.744Z,78.08
2022-11-29T05:50:58.625Z,77.76
2022-11-29T05:53:48.663Z,77.51
2022-11-29T05:56:27.927Z,77.23
2022-11-29T05:59:03.652Z,76.89
2022-11-29T06:01:37.936Z,76.74
2022-11-29T06:04:15.248Z,76.50
2022-11-29T06:06:55.735Z,76.43
2022-11-29T06:09:28.838Z,76.48
2022-11-29T06:12:05.350Z,76.46
2022-11-29T06:14:43.003Z,76.23
2022-11-29T06:17:49.009Z,76.26
2022-11-29T06:20:43.898Z,76.16
2022-11-29T06:23:24.537Z,76.03
2022-11-29T06:26:03.638Z,75.85
2022-11-29T06:28:49.024Z,76.01
2022-11-29T06:31:34.659Z,76.20
2022-11-29T06:34:14.642Z,76.65
2022-11-29T06:36:50.893Z,76.95
2022-11-29T06:39:19.364Z,76.90
2022-11-29T06:41:49.286Z,76.92
2022-11-29T06:44:17.751Z,77.01
2022-11-29T06:46:48.010Z,76.94
2022-11-29T06:49:39.255Z,76.96
2022-11-29T06:52:37.797Z,77.14
2022-11-29T06:55:20.132Z,77.06
2022-11-29T06:58:15.351Z,76.44
2022-11-29T07:01:02.065Z,76.19
2022-11-29T07:03:48.275Z,76.34
2022-11-29T07:06:24.930Z,76.38
2022-11-29T07:08:58.858Z,76.12
2022-11-29T07:11:27.965Z,75.69
2022-11-29T07:13:56.271Z,75.54
2022-11-29T07:16:54.473Z,75.27
2022-11-29T07:19:40.141Z,74.74
2022-11-29T07:22:28.026Z,74.82
2022-11-29T07:25:20.847Z,74.99
2022-11-29T07:28:07.001Z,74.78
2022-11-29T07:30:52.524Z,74.44
2022-11-29T07:33:46.683Z,74.07
2022-11-29T07:36:43.018Z,73.86
2022-11-29T07:39:22.512Z,73.48
2022-11-29T07:42:16.180Z,73.45
2022-11-29T07:45:06.217Z,73.47
2022-11-29T07:47:36.062Z,73.39
2022-11-29T07:50:05.318Z,73.31
2022-11-29T07:52:33.599Z,73.09
2022-11-29T07:55:02.365Z,73.07
2022-11-29T07:57:30.400Z,73.26
2022-11-29T07:59:58.571Z,73.15
2022-11-29T08:02:31.155Z,73.06
2022-11-29T08:04:59.539Z,73.01
2022-11-29T08:07:28.647Z,73.11
2022-11-29T08:09:56.695Z,73.19
2022-11-29T08:12:24.689Z,73.35
2022-11-29T08:14:52.617Z,73.20
2022-11-29T08:17:20.837Z,72.98
2022-11-29T08:19:49.328Z,72.89
2022-11-29T08:22:17.448Z,72.96
2022-11-29T08:24:45.532Z,72.86
2022-11-29T08:27:13.741Z,72.89
2022-11-29T08:29:41.865Z,72.37
2022-11-29T08:32:09.835Z,72.12
2022-11-29T08:34:38.313Z,72.16
2022-11-29T08:37:06.411Z,71.58
2022-11-29T08:39:34.483Z,71.13
2022-11-29T08:42:02.514Z,71.46
2022-11-29T08:44:30.486Z,71.30
2022-11-29T08:47:16.994Z,70.94
2022-11-29T08:50:03.343Z,70.98
2022-11-29T08:52:54.192Z,70.94
2022-11-29T08:55:25.034Z,70.65
2022-11-29T08:57:55.079Z,70.43
2022-11-29T09:00:23.193Z,70.40
2022-11-29T09:02:51.491Z,70.45
2022-11-29T09:05:20.276Z,70.42
2022-11-29T09:07:48.179Z,72.92
2022-11-29T09:10:16.642Z,75.20
2022-11-29T09:12:45.195Z,72.30
2022-11-29T09:15:13.321Z,71.39
2022-11-29T09:17:41.208Z,70.37
2022-11-29T09:20:09.393Z,70.04
2022-11-29T09:22:37.356Z,69.58
2022-11-29T09:25:05.810Z,69.30
2022-11-29T09:27:33.695Z,69.05
2022-11-29T09:30:01.846Z,68.73
2022-11-29T09:32:31.306Z,68.19
2022-11-29T09:34:59.453Z,68.37
2022-11-29T09:37:27.664Z,68.26
2022-11-29T09:39:55.650Z,67.90
2022-11-29T09:43:15.301Z,68.32
2022-11-29T09:45:47.386Z,68.25
2022-11-29T09:48:36.993Z,67.86
2022-11-29T09:51:13.700Z,67.47
2022-11-29T09:54:00.282Z,67.63
2022-11-29T09:56:42.655Z,67.91
2022-11-29T09:59:37.432Z,68.01
2022-11-29T10:02:21.987Z,68.30
2022-11-29T10:04:58.175Z,68.74
2022-11-29T10:07:46.220Z,69.20
2022-11-29T10:10:24.346Z,69.39
2022-11-29T10:12:59.836Z,69.65
2022-11-29T10:15:32.204Z,69.68
2022-11-29T10:18:22.701Z,69.23
2022-11-29T10:20:54.195Z,68.97
2022-11-29T10:23:34.865Z,69.10
2022-11-29T10:26:08.177Z,69.40
2022-11-29T10:28:37.796Z,69.45
2022-11-29T10:31:29.363Z,69.39
2022-11-29T10:34:01.079Z,69.48
2022-11-29T10:36:36.727Z,69.52
2022-11-29T10:39:19.995Z,69.57
2022-11-29T10:41:55.917Z,69.43
2022-11-29T10:44:24.630Z,69.27
2022-11-29T10:46:53.511Z,69.61
2022-11-29T10:49:27.080Z,69.73
2022-11-29T10:51:55.166Z,69.95
2022-11-29T10:54:38.944Z,69.90
2022-11-29T10:57:19.140Z,69.72
2022-11-29T11:00:07.360Z,69.76
2022-11-29T11:02:36.823Z,69.85
2022-11-29T11:05:13.369Z,69.99
2022-11-29T11:07:41.959Z,69.82
2022-11-29T11:10:29.069Z,69.95
2022-11-29T11:13:20.943Z,69.98
2022-11-29T11:15:49.005Z,70.10
2022-11-29T11:18:23.100Z,70.46
2022-11-29T11:20:58.765Z,70.68
2022-11-29T11:23:30.604Z,70.63
2022-11-29T11:26:05.319Z,70.53
2022-11-29T11:28:43.869Z,70.35
2022-11-29T11:31:13.131Z,70.03
2022-11-29T11:33:46.149Z,69.87
2022-11-29T11:36:22.581Z,69.59
2022-11-29T11:38:56.191Z,71.17
2022-11-29T11:41:57.237Z,73.77
2022-11-29T11:44:51.725Z,69.77
2022-11-29T11:47:24.568Z,69.19
2022-11-29T11:50:04.509Z,69.27
2022-11-29T11:52:53.367Z,69.48
2022-11-29T11:55:21.287Z,69.88
2022-11-29T11:58:03.387Z,70.02
2022-11-29T12:01:07.862Z,69.88
2022-11-29T12:03:41.870Z,69.88
2022-11-29T12:06:25.826Z,70.05
2022-11-29T12:09:19.603Z,70.11
2022-11-29T12:11:54.564Z,69.65
2022-11-29T12:14:30.283Z,69.55
2022-11-29T12:17:09.914Z,69.93
2022-11-29T12:19:49.600Z,69.69
2022-11-29T12:22:24.912Z,69.74
2022-11-29T12:25:02.307Z,69.91
2022-11-29T12:27:31.432Z,69.62
2022-11-29T12:29:59.280Z,69.38
2022-11-29T12:32:30.127Z,69.56
2022-11-29T12:35:22.608Z,69.54
2022-11-29T12:38:05.917Z,69.50
2022-11-29T12:40:49.401Z,69.66
2022-11-29T12:43:23.612Z,69.48
2022-11-29T12:46:16.055Z,69.54
2022-11-29T12:48:57.464Z,69.55
2022-11-29T12:51:25.623Z,69.49
2022-11-29T12:54:20.618Z,69.41
2022-11-29T12:56:55.877Z,69.32
2022-11-29T13:00:06.264Z,69.50
2022-11-29T13:02:44.032Z,69.53
2022-11-29T13:05:24.985Z,69.51
2022-11-29T13:08:11.385Z,69.51
2022-11-29T13:10:39.482Z,69.67
2022-11-29T13:13:44.427Z,69.77
2022-11-29T13:19:18.842Z,72.09
2022-11-29T13:21:58.093Z,70.19
2022-11-29T13:24:38.354Z,70.00
2022-11-29T13:27:18.881Z,70.00
2022-11-29T13:29:47.848Z,69.71
2022-11-29T13:32:26.248Z,69.94
2022-11-29T13:34:59.743Z,70.01
2022-11-29T13:37:40.522Z,70.35
2022-11-29T13:40:25.864Z,70.65
2022-11-29T13:42:58.601Z,71.11
2022-11-29T13:45:44.741Z,71.58
2022-11-29T13:48:32.424Z,71.93
2022-11-29T13:51:23.665Z,72.52
2022-11-29T13:53:53.402Z,72.85
2022-11-29T13:56:29.823Z,73.14
2022-11-29T13:58:59.148Z,73.55
2022-11-29T14:01:28.621Z,73.65
2022-11-29T14:04:04.888Z,73.82
2022-11-29T14:06:38.370Z,73.89
2022-11-29T14:09:31.881Z,74.18
2022-11-29T14:12:37.292Z,74.31
2022-11-29T14:15:11.336Z,75.22
2022-11-29T14:17:51.542Z,75.43
2022-11-29T14:20:22.508Z,75.88
2022-11-29T14:23:05.829Z,75.43
2022-11-29T14:26:01.004Z,75.20
2022-11-29T14:28:34.596Z,75.38
2022-11-29T14:31:05.086Z,75.53
2022-11-29T14:33:52.153Z,75.60
2022-11-29T14:36:48.097Z,75.58
2022-11-29T14:39:41.168Z,75.75
2022-11-29T14:42:21.386Z,75.59
2022-11-29T14:44:54.470Z,75.31
2022-11-29T14:47:32.102Z,75.94
2022-11-29T14:50:04.386Z,76.03
2022-11-29T14:52:38.755Z,75.24
2022-11-29T14:55:09.389Z,75.08
2022-11-29T14:58:03.819Z,74.95
2022-11-29T15:00:47.341Z,75.09
2022-11-29T15:03:32.044Z,75.32
2022-11-29T15:06:06.139Z,75.46
2022-11-29T15:09:01.881Z,75.37
2022-11-29T15:11:52.874Z,75.29
2022-11-29T15:14:20.918Z,75.11
2022-11-29T15:17:31.441Z,75.00
2022-11-29T15:20:25.415Z,74.97
2022-11-29T15:22:57.991Z,74.83
2022-11-29T15:25:30.940Z,74.51
2022-11-29T15:28:04.854Z,74.29
2022-11-29T15:30:35.993Z,74.27
2022-11-29T15:33:19.068Z,74.18
2022-11-29T15:35:57.016Z,73.92
2022-11-29T15:38:25.232Z,73.59
2022-11-29T15:40:55.344Z,73.45
2022-11-29T15:43:30.466Z,73.43
2022-11-29T15:45:59.411Z,73.28
2022-11-29T15:48:29.999Z,73.10
2022-11-29T15:50:57.871Z,72.91
2022-11-29T15:53:38.542Z,72.92
2022-11-29T15:56:18.487Z,72.88
2022-11-29T15:58:48.938Z,72.76
2022-11-29T16:01:21.907Z,72.93
2022-11-29T16:03:53.695Z,73.06
2022-11-29T16:06:38.091Z,73.48
2022-11-29T16:09:11.068Z,73.76
2022-11-29T16:11:39.923Z,73.95
2022-11-29T16:14:11.008Z,74.00
2022-11-29T16:16:41.034Z,73.94
2022-11-29T16:19:22.937Z,73.91
2022-11-29T16:22:12.616Z,73.66
2022-11-29T16:25:05.703Z,73.43
2022-11-29T16:27:35.645Z,73.41
2022-11-29T16:30:05.511Z,73.46
2022-11-29T16:32:42.681Z,73.61
2022-11-29T16:35:20.880Z,74.09
2022-11-29T16:37:49.243Z,74.99
2022-11-29T16:40:25.816Z,75.59
2022-11-29T16:43:03.023Z,75.56
2022-11-29T16:45:38.727Z,75.72
2022-11-29T16:48:22.018Z,75.82
2022-11-29T16:51:15.056Z,76.12
2022-11-29T16:53:48.367Z,76.17
2022-11-29T16:56:19.318Z,76.25
2022-11-29T16:59:20.491Z,76.44
2022-11-29T17:01:40.516Z,76.40
2022-11-29T17:04:09.390Z,76.37
2022-11-29T17:06:38.334Z,76.41
2022-11-29T17:09:06.268Z,76.36
2022-11-29T17:11:34.178Z,76.60
2022-11-29T17:14:02.618Z,76.77
2022-11-29T17:16:30.558Z,77.10
2022-11-29T17:18:58.686Z,77.89
2022-11-29T17:21:28.230Z,78.67
2022-11-29T17:23:56.195Z,83.55
2022-11-29T17:26:24.835Z,84.18
2022-11-29T17:28:53.239Z,82.18
2022-11-29T17:31:24.152Z,80.93
2022-11-29T17:33:52.553Z,79.53
2022-11-29T17:36:21.498Z,77.62
2022-11-29T17:38:49.581Z,77.06
2022-11-29T17:41:25.358Z,77.10
2022-11-29T17:43:55.561Z,77.04
2022-11-29T17:46:28.769Z,76.80
2022-11-29T17:48:59.616Z,77.07
2022-11-29T17:51:51.164Z,76.94
2022-11-29T17:54:16.713Z,76.80
2022-11-29T17:56:44.662Z,76.76
2022-11-29T17:59:12.651Z,76.40
2022-11-29T18:01:40.623Z,76.32
2022-11-29T18:04:08.616Z,76.01
2022-11-29T18:06:39.603Z,75.80
2022-11-29T18:09:10.880Z,75.48
2022-11-29T18:11:48.655Z,75.36
2022-11-29T18:14:24.161Z,75.35
2022-11-29T18:16:52.506Z,75.38
2022-11-29T18:19:22.540Z,75.18
2022-11-29T18:21:51.324Z,75.16
2022-11-29T18:24:19.767Z,75.03
2022-11-29T18:26:47.941Z,74.81
2022-11-29T18:29:16.290Z,74.66
2022-11-29T18:31:46.665Z,74.85
2022-11-29T18:34:15.794Z,75.05
2022-11-29T18:36:46.887Z,75.15
2022-11-29T18:39:17.716Z,75.19
2022-11-29T18:41:48.607Z,75.00
2022-11-29T18:44:19.832Z,74.99
2022-11-29T18:46:48.047Z,74.92
2022-11-29T18:49:18.105Z,78.39
2022-11-29T18:51:47.799Z,80.03
2022-11-29T18:54:18.302Z,80.57
2022-11-29T18:56:47.090Z,79.16
2022-11-29T18:59:17.317Z,77.86
2022-11-29T19:01:48.457Z,77.04
2022-11-29T19:04:19.921Z,76.85
2022-11-29T19:06:48.472Z,76.57
2022-11-29T19:09:21.173Z,76.51
2022-11-29T19:11:50.458Z,76.48
2022-11-29T19:14:19.218Z,76.19
2022-11-29T19:16:50.045Z,76.09
2022-11-29T19:19:19.321Z,76.16
2022-11-29T19:21:47.756Z,76.13
2022-11-29T19:24:18.191Z,76.25
2022-11-29T19:26:50.064Z,76.31
2022-11-29T19:29:18.021Z,76.36
2022-11-29T19:31:45.999Z,76.24
2022-11-29T19:34:14.517Z,76.22
2022-11-29T19:36:43.897Z,76.14
2022-11-29T19:39:14.814Z,76.02
2022-11-29T19:41:48.001Z,75.87
2022-11-29T19:44:16.231Z,75.66
2022-11-29T19:46:48.872Z,75.41
2022-11-29T19:49:17.471Z,75.18
2022-11-29T19:51:49.876Z,75.00
2022-11-29T19:54:19.227Z,74.96
2022-11-29T19:56:56.003Z,74.89
2022-11-29T19:59:38.773Z,74.55
2022-11-29T20:02:07.146Z,74.56
2022-11-29T20:04:41.213Z,74.53
2022-11-29T20:07:09.231Z,74.56
2022-11-29T20:09:37.720Z,74.39
2022-11-29T20:12:06.133Z,74.39
2022-11-29T20:14:40.592Z,74.23
2022-11-29T20:17:27.598Z,74.38
2022-11-29T20:19:59.277Z,74.35
2022-11-29T20:22:27.247Z,74.47
2022-11-29T20:24:55.326Z,74.74
2022-11-29T20:27:23.855Z,74.87
2022-11-29T20:29:51.867Z,74.98
2022-11-29T20:32:19.852Z,74.72
2022-11-29T20:34:48.312Z,74.40
2022-11-29T20:37:55.056Z,74.16
2022-11-29T20:40:30.152Z,74.01
2022-11-29T20:43:06.523Z,73.87
2022-11-29T20:45:34.702Z,73.84
2022-11-29T20:48:21.781Z,73.80
2022-11-29T20:51:01.571Z,73.92
2022-11-29T20:53:41.773Z,74.08
2022-11-29T20:56:11.362Z,74.17
2022-11-29T20:58:39.914Z,73.99
2022-11-29T21:01:08.185Z,73.66
2022-11-29T21:03:36.913Z,73.47
2022-11-29T21:06:06.405Z,73.41
2022-11-29T21:08:34.739Z,73.30
2022-11-29T21:11:05.592Z,73.01
2022-11-29T21:13:34.556Z,72.91
2022-11-29T21:16:03.382Z,74.01
2022-11-29T21:18:32.832Z,74.63
2022-11-29T21:21:25.148Z,74.23
2022-11-29T21:24:03.357Z,73.98
2022-11-29T21:26:46.864Z,73.51
2022-11-29T21:29:18.508Z,72.96
2022-11-29T21:31:49.652Z,72.72
2022-11-29T21:34:18.150Z,72.83
2022-11-29T21:36:50.576Z,72.85
2022-11-29T21:39:18.522Z,72.89
2022-11-29T21:41:48.466Z,72.98
2022-11-29T21:44:16.689Z,73.09
2022-11-29T21:46:44.721Z,73.33
2022-11-29T21:49:12.992Z,73.40
2022-11-29T21:51:41.083Z,73.34
2022-11-29T21:54:08.944Z,73.16
2022-11-29T21:56:36.896Z,73.01
2022-11-29T21:59:05.794Z,72.66
2022-11-29T22:01:34.017Z,72.40
2022-11-29T22:04:02.478Z,72.19
2022-11-29T22:06:30.416Z,72.08
2022-11-29T22:08:59.959Z,72.00
2022-11-29T22:11:36.957Z,71.99
2022-11-29T22:14:15.182Z,72.15
2022-11-29T22:16:54.384Z,72.38
2022-11-29T22:19:28.397Z,72.54
2022-11-29T22:22:05.659Z,72.45
2022-11-29T22:24:35.660Z,72.05
2022-11-29T22:27:04.470Z,72.09
2022-11-29T22:29:32.821Z,72.13
2022-11-29T22:32:01.303Z,72.04
2022-11-29T22:34:29.283Z,72.00
2022-11-29T22:36:58.038Z,71.71
2022-11-29T22:39:26.026Z,71.68
2022-11-29T22:41:55.250Z,72.07
2022-11-29T22:44:24.081Z,72.18
2022-11-29T22:46:52.526Z,72.50
2022-11-29T22:49:20.857Z,72.79
2022-11-29T22:51:49.115Z,72.80
2022-11-29T22:54:17.712Z,72.82
2022-11-29T22:56:46.141Z,72.92
2022-11-29T22:59:14.313Z,72.97
2022-11-29T23:01:42.868Z,72.91
2022-11-29T23:04:12.360Z,72.89
2022-11-29T23:06:45.430Z,72.85
2022-11-29T23:09:16.728Z,72.97
2022-11-29T23:11:46.202Z,73.05
2022-11-29T23:14:14.093Z,73.01
2022-11-29T23:16:42.951Z,72.91
2022-11-29T23:19:11.223Z,72.83
2022-11-29T23:21:41.232Z,72.77
2022-11-29T23:24:09.411Z,72.73
2022-11-29T23:26:40.308Z,72.54
2022-11-29T23:29:11.938Z,72.42
2022-11-29T23:31:40.565Z,72.37
2022-11-29T23:34:08.832Z,72.28
2022-11-29T23:36:36.869Z,72.27
2022-11-29T23:39:06.733Z,72.25
2022-11-29T23:41:36.358Z,72.22
2022-11-29T23:44:05.913Z,72.19
2022-11-29T23:46:35.475Z,72.37
2022-11-29T23:49:03.592Z,72.36
2022-11-29T23:51:31.559Z,72.48
2022-11-29T23:53:59.850Z,72.71
2022-11-29T23:56:28.186Z,72.80
2022-11-29T23:58:56.315Z,72.67
